Colorado Star — 9HA2189 — position and weather

sailwx.info

Track history (hours):
 
Tides and Currents Weather Stations Pressure Air Temp Water Temp Dewpoint Dewpoint Depression Visibility Wind Speed Wind Dir Waves Ship Positions

Colorado Star

Last reported at 2014-Dec-21 19:32 UTC. Time now 2014-Dec-21 20:11 UTC.
Position N 51°21' E 003°46'.

Length 128 m; draft 6 m.

Type: Ship. MMSI: 248127000.

Date/timePositionNaut miles runAvg speedWind from/ knotsBaromVisibWave heightAir tempDewpointWater temp
2014-Dec-21 19:32N 51°21' E 003°46'0 0.0
2014-Dec-21 18:32N 51°21' E 003°46'0 0.0
2014-Dec-21 17:32N 51°21' E 003°46'0 0.0
2014-Dec-21 16:32N 51°21' E 003°46'0 0.0
2014-Dec-21 15:29N 51°21' E 003°46'0 0.0
2014-Dec-21 14:32N 51°21' E 003°46'0 0.0
2014-Dec-21 13:29N 51°21' E 003°46'0 0.0
2014-Dec-21 12:32N 51°21' E 003°46'0 0.0
2014-Dec-21 11:32N 51°21' E 003°46'0 0.0
2014-Dec-21 10:32N 51°21' E 003°46'0 0.0
2014-Dec-21 09:29N 51°21' E 003°46'0 0.0
2014-Dec-21 08:29N 51°21' E 003°46'0 0.0
2014-Dec-21 07:20N 51°21' E 003°46'0 0.0
2014-Dec-21 06:32N 51°21' E 003°46'0 0.0
2014-Dec-21 05:29N 51°21' E 003°46'0 0.0
2014-Dec-21 04:29N 51°21' E 003°46'0 0.0
2014-Dec-21 03:32N 51°21' E 003°46'0 0.0
2014-Dec-21 02:33N 51°21' E 003°46'5 5.1
2014-Dec-21 01:33N 51°25' E 003°42'10 9.8
2014-Dec-21 00:34N 51°30' E 003°28'1110.1
2014-Dec-20 23:30N 51°39' E 003°19'7 7.2
2014-Dec-20 22:30N 51°44' E 003°11'1212.8
2014-Dec-20 21:33N 51°43' E 002°52'1010.3
2014-Dec-20 20:33N 51°34' E 002°43'9 8.7
2014-Dec-20 19:32N 51°26' E 002°39'0 0.0
2014-Dec-20 18:33N 51°26' E 002°39'0 0.1
2014-Dec-20 17:33N 51°26' E 002°39'0 0.1
2014-Dec-20 16:33N 51°26' E 002°39'0 0.0
2014-Dec-20 15:32N 51°26' E 002°39'0 0.0
2014-Dec-20 14:30N 51°26' E 002°39'0 0.1
2014-Dec-20 13:33N 51°26' E 002°39'0 0.1
2014-Dec-20 12:33N 51°26' E 002°39'0 0.0
2014-Dec-20 11:33N 51°26' E 002°39'0 0.0
2014-Dec-20 10:32N 51°26' E 002°39'0 0.0
2014-Dec-20 09:30N 51°26' E 002°39'0 0.1
2014-Dec-20 08:33N 51°26' E 002°39'0 0.1
2014-Dec-20 07:33N 51°26' E 002°39'0 0.0
2014-Dec-20 06:29N 51°26' E 002°38'0 0.1
2014-Dec-20 04:17N 51°26' E 002°39'0 0.1
2014-Dec-20 03:33N 51°26' E 002°39'0 0.0
2014-Dec-20 02:29N 51°26' E 002°39'0 0.0
2014-Dec-20 01:32N 51°26' E 002°39'0 0.0
2014-Dec-20 00:29N 51°26' E 002°39'0 0.0
2014-Dec-19 23:33N 51°26' E 002°39'0 0.0
2014-Dec-19 22:33N 51°26' E 002°39'0 0.0
2014-Dec-19 21:32N 51°26' E 002°39'0 0.1
2014-Dec-19 20:33N 51°26' E 002°39'0 0.1
2014-Dec-19 19:20N 51°26' E 002°38'0 0.1
2014-Dec-19 18:23N 51°26' E 002°38'0 0.0
2014-Dec-19 17:33N 51°26' E 002°38'0 0.1
2014-Dec-19 16:32N 51°26' E 002°38'1 0.8
2014-Dec-19 15:33N 51°27' E 002°39'6210.3
2014-Dec-19 09:33N 52°27' E 002°17'2512.7
2014-Dec-19 07:33N 52°51' E 002°03'1313.7
2014-Dec-19 06:34N 52°59' E 001°46'1414.1
2014-Dec-19 05:34N 53°08' E 001°28'1513.9
2014-Dec-19 04:30N 53°19' E 001°12'2713.9
2014-Dec-19 02:32N 53°42' E 000°45'1414.2
2014-Dec-19 01:34N 53°53' E 000°32'1413.5
2014-Dec-19 00:33N 54°04' E 000°19'1313.5
2014-Dec-18 23:33N 54°16' E 000°07'1313.2
2014-Dec-18 22:33N 54°27' W 000°06'1312.8
2014-Dec-18 21:33N 54°37' W 000°18'1212.5
2014-Dec-18 20:33N 54°48' W 000°29'1312.5
2014-Dec-18 19:33N 54°58' W 000°41'1212.2
2014-Dec-18 18:33N 55°09' W 000°53'5312.7
2014-Dec-18 14:22N 55°51' W 001°50'1113.4
2014-Dec-18 13:33N 55°58' W 002°05'1313.2
2014-Dec-18 12:33N 56°03' W 002°26'1313.1
2014-Dec-18 11:33N 56°05' W 002°50'1212.1
2014-Dec-18 10:33N 56°02' W 003°11'1111.0
2014-Dec-18 09:33N 56°01' W 003°30'6 6.0
2014-Dec-18 08:32N 56°02' W 003°41'0 0.0
2014-Dec-16 17:04N 56°02' W 003°41'5 2.9
2014-Dec-16 15:26N 56°02' W 003°33'910.4
2014-Dec-16 14:33N 56°02' W 003°17'1110.7
2014-Dec-16 13:34N 56°04' W 002°58'1211.8
2014-Dec-16 12:33N 56°06' W 002°37'1212.2
2014-Dec-16 11:33N 56°01' W 002°17'1212.3
2014-Dec-16 10:33N 55°55' W 001°58'1211.9
2014-Dec-16 09:33N 55°47' W 001°42'6512.0
2014-Dec-16 04:05N 54°54' W 000°36'712.7
2014-Dec-16 03:31N 54°48' W 000°29'1212.9
2014-Dec-16 02:33N 54°38' W 000°17'1413.6
2014-Dec-16 01:33N 54°26' W 000°05'1312.5
2014-Dec-16 00:31N 54°15' E 000°07'1212.5
2014-Dec-15 23:34N 54°05' E 000°18'1212.2
2014-Dec-15 22:34N 53°55' E 000°30'1211.9
2014-Dec-15 21:33N 53°45' E 000°42'4213.2
2014-Dec-15 18:20N 53°11' E 001°24'1114.0
2014-Dec-15 17:33N 53°03' E 001°37'1413.7
2014-Dec-15 16:33N 52°55' E 001°56'1312.8
2014-Dec-15 15:33N 52°46' E 002°10'5811.5
2014-Dec-15 10:30N 52°31' E 003°42'1010.6
2014-Dec-15 09:34N 52°31' E 003°59'1111.1
2014-Dec-15 08:34N 52°30' E 004°17'1110.8
2014-Dec-15 07:33N 52°28' E 004°34'2 2.5
2014-Dec-15 06:33N 52°28' E 004°38'5 4.8
2014-Dec-15 05:31N 52°25' E 004°45'0 0.0
2014-Dec-15 04:31N 52°25' E 004°45'0 0.0
2014-Dec-15 03:33N 52°25' E 004°45'0 0.0
2014-Dec-15 02:34N 52°25' E 004°45'0 0.0
2014-Dec-15 01:34N 52°25' E 004°45'0 0.0
2014-Dec-15 00:34N 52°25' E 004°45'0 0.0
2014-Dec-14 23:33N 52°25' E 004°45'0 0.0
2014-Dec-14 22:34N 52°25' E 004°45'0 0.0
2014-Dec-14 21:33N 52°25' E 004°45'0 0.0
2014-Dec-14 20:34N 52°25' E 004°45'0 0.0
2014-Dec-14 19:34N 52°25' E 004°45'0 0.0
2014-Dec-14 18:34N 52°25' E 004°45'0 0.0
2014-Dec-14 17:34N 52°25' E 004°45'0 0.0
2014-Dec-14 16:34N 52°25' E 004°45'0 0.0
2014-Dec-14 15:33N 52°25' E 004°45'0 0.0
2014-Dec-14 14:33N 52°25' E 004°45'0 0.0
2014-Dec-14 13:34N 52°25' E 004°45'0 0.0
2014-Dec-14 12:34N 52°25' E 004°45'0 0.0
2014-Dec-14 11:34N 52°25' E 004°45'0 0.0
2014-Dec-14 10:34N 52°25' E 004°45'0 0.0
2014-Dec-14 09:34N 52°25' E 004°45'0 0.0
2014-Dec-14 08:33N 52°25' E 004°45'0 0.0
2014-Dec-14 07:34N 52°25' E 004°45'3 2.7
2014-Dec-14 06:33N 52°27' E 004°42'3 3.3
2014-Dec-14 05:33N 52°28' E 004°37'6 5.5
2014-Dec-14 04:33N 52°28' E 004°28'7 6.9
2014-Dec-14 03:33N 52°29' E 004°16'5 5.1
2014-Dec-14 02:33N 52°30' E 004°08'7 6.6
2014-Dec-14 01:33N 52°36' E 004°04'8 8.1
2014-Dec-14 00:33N 52°44' E 003°60'8 8.2
2014-Dec-13 23:33N 52°52' E 003°59'10 8.8
2014-Dec-13 22:22N 53°01' E 004°08'9 9.7
2014-Dec-13 21:28N 53°07' E 004°19'19 9.2
2014-Dec-13 19:27N 53°23' E 004°34'9 9.6
2014-Dec-13 18:32N 53°30' E 004°43'1110.8
2014-Dec-13 17:33N 53°34' E 005°00'1111.3
2014-Dec-13 16:33N 53°38' E 005°18'1111.5
2014-Dec-13 15:33N 53°41' E 005°36'1110.8
2014-Dec-13 14:33N 53°45' E 005°53'10 9.8
2014-Dec-13 13:31N 53°48' E 006°10'47 9.3
2014-Dec-13 08:28N 54°00' E 007°26'910.2
2014-Dec-13 07:33N 54°03' E 007°42'10 9.9
2014-Dec-13 06:33N 54°02' E 007°59'1010.4
2014-Dec-13 05:33N 54°01' E 008°16'1211.7
2014-Dec-13 04:33N 53°58' E 008°35'1110.6
2014-Dec-13 03:33N 53°50' E 008°48'10 9.6
2014-Dec-13 02:33N 53°52' E 009°04'7 7.1
2014-Dec-13 01:33N 53°52' E 009°16'1211.8
2014-Dec-13 00:33N 53°43' E 009°28'1312.9
2014-Dec-12 23:33N 53°34' E 009°44'9 8.5
2014-Dec-12 22:33N 53°30' E 009°57'2 1.5
2014-Dec-12 21:29N 53°29' E 009°57'0 0.0
2014-Dec-12 20:29N 53°29' E 009°57'0 0.0
2014-Dec-12 19:29N 53°29' E 009°57'0 0.0
2014-Dec-12 18:32N 53°29' E 009°57'0 0.0
2014-Dec-12 17:29N 53°29' E 009°57'0 0.0
2014-Dec-12 16:32N 53°29' E 009°57'0 0.0
2014-Dec-12 15:29N 53°29' E 009°57'0 0.0
2014-Dec-12 14:32N 53°29' E 009°57'0 0.0
2014-Dec-12 13:32N 53°29' E 009°57'0 0.0
2014-Dec-12 12:32N 53°29' E 009°57'0 0.0
2014-Dec-12 11:32N 53°29' E 009°57'0 0.0
2014-Dec-12 10:29N 53°29' E 009°57'0 0.0
2014-Dec-12 09:29N 53°29' E 009°57'0 0.0
2014-Dec-12 08:32N 53°29' E 009°57'0 0.0
2014-Dec-12 07:32N 53°29' E 009°57'0 0.0
2014-Dec-12 06:32N 53°29' E 009°57'0 0.0
2014-Dec-12 05:32N 53°29' E 009°57'0 0.0
2014-Dec-12 04:32N 53°29' E 009°57'0 0.0
2014-Dec-12 03:32N 53°29' E 009°57'0 0.0
2014-Dec-12 02:32N 53°29' E 009°57'0 0.0
2014-Dec-12 01:32N 53°29' E 009°57'0 0.0
2014-Dec-12 00:32N 53°29' E 009°57'0 0.0
2014-Dec-11 23:32N 53°29' E 009°57'0 0.0
2014-Dec-11 22:29N 53°29' E 009°57'0 0.0
2014-Dec-11 21:29N 53°29' E 009°57'0 0.0
2014-Dec-11 20:29N 53°29' E 009°57'0 0.0
2014-Dec-11 19:32N 53°29' E 009°57'  
Track history (hours):
 
Tides and Currents Weather Stations Pressure Air Temp Water Temp Dewpoint Dewpoint Depression Visibility Wind Speed Wind Dir Waves Ship Positions

Colorado Star

Last reported at 2014-Dec-21 19:32 UTC. Time now 2014-Dec-21 20:11 UTC.
Position N 51°21' E 003°46'.

Length 128 m; draft 6 m.

Type: Ship. MMSI: 248127000.

Date/timePositionNaut miles runAvg speedWind from/ knotsBaromVisibWave heightAir tempDewpointWater temp
2014-Dec-21 19:32N 51°21' E 003°46'0 0.0
2014-Dec-21 18:32N 51°21' E 003°46'0 0.0
2014-Dec-21 17:32N 51°21' E 003°46'0 0.0
2014-Dec-21 16:32N 51°21' E 003°46'0 0.0
2014-Dec-21 15:29N 51°21' E 003°46'0 0.0
2014-Dec-21 14:32N 51°21' E 003°46'0 0.0
2014-Dec-21 13:29N 51°21' E 003°46'0 0.0
2014-Dec-21 12:32N 51°21' E 003°46'0 0.0
2014-Dec-21 11:32N 51°21' E 003°46'0 0.0
2014-Dec-21 10:32N 51°21' E 003°46'0 0.0
2014-Dec-21 09:29N 51°21' E 003°46'0 0.0
2014-Dec-21 08:29N 51°21' E 003°46'0 0.0
2014-Dec-21 07:20N 51°21' E 003°46'0 0.0
2014-Dec-21 06:32N 51°21' E 003°46'0 0.0
2014-Dec-21 05:29N 51°21' E 003°46'0 0.0
2014-Dec-21 04:29N 51°21' E 003°46'0 0.0
2014-Dec-21 03:32N 51°21' E 003°46'0 0.0
2014-Dec-21 02:33N 51°21' E 003°46'5 5.1
2014-Dec-21 01:33N 51°25' E 003°42'10 9.8
2014-Dec-21 00:34N 51°30' E 003°28'1110.1
2014-Dec-20 23:30N 51°39' E 003°19'7 7.2
2014-Dec-20 22:30N 51°44' E 003°11'1212.8
2014-Dec-20 21:33N 51°43' E 002°52'1010.3
2014-Dec-20 20:33N 51°34' E 002°43'9 8.7
2014-Dec-20 19:32N 51°26' E 002°39'0 0.0
2014-Dec-20 18:33N 51°26' E 002°39'0 0.1
2014-Dec-20 17:33N 51°26' E 002°39'0 0.1
2014-Dec-20 16:33N 51°26' E 002°39'0 0.0
2014-Dec-20 15:32N 51°26' E 002°39'0 0.0
2014-Dec-20 14:30N 51°26' E 002°39'0 0.1
2014-Dec-20 13:33N 51°26' E 002°39'0 0.1
2014-Dec-20 12:33N 51°26' E 002°39'0 0.0
2014-Dec-20 11:33N 51°26' E 002°39'0 0.0
2014-Dec-20 10:32N 51°26' E 002°39'0 0.0
2014-Dec-20 09:30N 51°26' E 002°39'0 0.1
2014-Dec-20 08:33N 51°26' E 002°39'0 0.1
2014-Dec-20 07:33N 51°26' E 002°39'0 0.0
2014-Dec-20 06:29N 51°26' E 002°38'0 0.1
2014-Dec-20 04:17N 51°26' E 002°39'0 0.1
2014-Dec-20 03:33N 51°26' E 002°39'0 0.0
2014-Dec-20 02:29N 51°26' E 002°39'0 0.0
2014-Dec-20 01:32N 51°26' E 002°39'0 0.0
2014-Dec-20 00:29N 51°26' E 002°39'0 0.0
2014-Dec-19 23:33N 51°26' E 002°39'0 0.0
2014-Dec-19 22:33N 51°26' E 002°39'0 0.0
2014-Dec-19 21:32N 51°26' E 002°39'0 0.1
2014-Dec-19 20:33N 51°26' E 002°39'0 0.1
2014-Dec-19 19:20N 51°26' E 002°38'0 0.1
2014-Dec-19 18:23N 51°26' E 002°38'0 0.0
2014-Dec-19 17:33N 51°26' E 002°38'0 0.1
2014-Dec-19 16:32N 51°26' E 002°38'1 0.8
2014-Dec-19 15:33N 51°27' E 002°39'6210.3
2014-Dec-19 09:33N 52°27' E 002°17'2512.7
2014-Dec-19 07:33N 52°51' E 002°03'1313.7
2014-Dec-19 06:34N 52°59' E 001°46'1414.1
2014-Dec-19 05:34N 53°08' E 001°28'1513.9
2014-Dec-19 04:30N 53°19' E 001°12'2713.9
2014-Dec-19 02:32N 53°42' E 000°45'1414.2
2014-Dec-19 01:34N 53°53' E 000°32'1413.5
2014-Dec-19 00:33N 54°04' E 000°19'1313.5
2014-Dec-18 23:33N 54°16' E 000°07'1313.2
2014-Dec-18 22:33N 54°27' W 000°06'1312.8
2014-Dec-18 21:33N 54°37' W 000°18'1212.5
2014-Dec-18 20:33N 54°48' W 000°29'1312.5
2014-Dec-18 19:33N 54°58' W 000°41'1212.2
2014-Dec-18 18:33N 55°09' W 000°53'5312.7
2014-Dec-18 14:22N 55°51' W 001°50'1113.4
2014-Dec-18 13:33N 55°58' W 002°05'1313.2
2014-Dec-18 12:33N 56°03' W 002°26'1313.1
2014-Dec-18 11:33N 56°05' W 002°50'1212.1
2014-Dec-18 10:33N 56°02' W 003°11'1111.0
2014-Dec-18 09:33N 56°01' W 003°30'6 6.0
2014-Dec-18 08:32N 56°02' W 003°41'0 0.0
2014-Dec-16 17:04N 56°02' W 003°41'5 2.9
2014-Dec-16 15:26N 56°02' W 003°33'910.4
2014-Dec-16 14:33N 56°02' W 003°17'1110.7
2014-Dec-16 13:34N 56°04' W 002°58'1211.8
2014-Dec-16 12:33N 56°06' W 002°37'1212.2
2014-Dec-16 11:33N 56°01' W 002°17'1212.3
2014-Dec-16 10:33N 55°55' W 001°58'1211.9
2014-Dec-16 09:33N 55°47' W 001°42'6512.0
2014-Dec-16 04:05N 54°54' W 000°36'712.7
2014-Dec-16 03:31N 54°48' W 000°29'1212.9
2014-Dec-16 02:33N 54°38' W 000°17'1413.6
2014-Dec-16 01:33N 54°26' W 000°05'1312.5
2014-Dec-16 00:31N 54°15' E 000°07'1212.5
2014-Dec-15 23:34N 54°05' E 000°18'1212.2
2014-Dec-15 22:34N 53°55' E 000°30'1211.9
2014-Dec-15 21:33N 53°45' E 000°42'4213.2
2014-Dec-15 18:20N 53°11' E 001°24'1114.0
2014-Dec-15 17:33N 53°03' E 001°37'1413.7
2014-Dec-15 16:33N 52°55' E 001°56'1312.8
2014-Dec-15 15:33N 52°46' E 002°10'5811.5
2014-Dec-15 10:30N 52°31' E 003°42'1010.6
2014-Dec-15 09:34N 52°31' E 003°59'1111.1
2014-Dec-15 08:34N 52°30' E 004°17'1110.8
2014-Dec-15 07:33N 52°28' E 004°34'2 2.5
2014-Dec-15 06:33N 52°28' E 004°38'5 4.8
2014-Dec-15 05:31N 52°25' E 004°45'0 0.0
2014-Dec-15 04:31N 52°25' E 004°45'0 0.0
2014-Dec-15 03:33N 52°25' E 004°45'0 0.0
2014-Dec-15 02:34N 52°25' E 004°45'0 0.0
2014-Dec-15 01:34N 52°25' E 004°45'0 0.0
2014-Dec-15 00:34N 52°25' E 004°45'0 0.0
2014-Dec-14 23:33N 52°25' E 004°45'0 0.0
2014-Dec-14 22:34N 52°25' E 004°45'0 0.0
2014-Dec-14 21:33N 52°25' E 004°45'0 0.0
2014-Dec-14 20:34N 52°25' E 004°45'0 0.0
2014-Dec-14 19:34N 52°25' E 004°45'0 0.0
2014-Dec-14 18:34N 52°25' E 004°45'0 0.0
2014-Dec-14 17:34N 52°25' E 004°45'0 0.0
2014-Dec-14 16:34N 52°25' E 004°45'0 0.0
2014-Dec-14 15:33N 52°25' E 004°45'0 0.0
2014-Dec-14 14:33N 52°25' E 004°45'0 0.0
2014-Dec-14 13:34N 52°25' E 004°45'0 0.0
2014-Dec-14 12:34N 52°25' E 004°45'0 0.0
2014-Dec-14 11:34N 52°25' E 004°45'0 0.0
2014-Dec-14 10:34N 52°25' E 004°45'0 0.0
2014-Dec-14 09:34N 52°25' E 004°45'0 0.0
2014-Dec-14 08:33N 52°25' E 004°45'0 0.0
2014-Dec-14 07:34N 52°25' E 004°45'3 2.7
2014-Dec-14 06:33N 52°27' E 004°42'3 3.3
2014-Dec-14 05:33N 52°28' E 004°37'6 5.5
2014-Dec-14 04:33N 52°28' E 004°28'7 6.9
2014-Dec-14 03:33N 52°29' E 004°16'5 5.1
2014-Dec-14 02:33N 52°30' E 004°08'7 6.6
2014-Dec-14 01:33N 52°36' E 004°04'8 8.1
2014-Dec-14 00:33N 52°44' E 003°60'8 8.2
2014-Dec-13 23:33N 52°52' E 003°59'10 8.8
2014-Dec-13 22:22N 53°01' E 004°08'9 9.7
2014-Dec-13 21:28N 53°07' E 004°19'19 9.2
2014-Dec-13 19:27N 53°23' E 004°34'9 9.6
2014-Dec-13 18:32N 53°30' E 004°43'1110.8
2014-Dec-13 17:33N 53°34' E 005°00'1111.3
2014-Dec-13 16:33N 53°38' E 005°18'1111.5
2014-Dec-13 15:33N 53°41' E 005°36'1110.8
2014-Dec-13 14:33N 53°45' E 005°53'10 9.8
2014-Dec-13 13:31N 53°48' E 006°10'47 9.3
2014-Dec-13 08:28N 54°00' E 007°26'910.2
2014-Dec-13 07:33N 54°03' E 007°42'10 9.9
2014-Dec-13 06:33N 54°02' E 007°59'1010.4
2014-Dec-13 05:33N 54°01' E 008°16'1211.7
2014-Dec-13 04:33N 53°58' E 008°35'1110.6
2014-Dec-13 03:33N 53°50' E 008°48'10 9.6
2014-Dec-13 02:33N 53°52' E 009°04'7 7.1
2014-Dec-13 01:33N 53°52' E 009°16'1211.8
2014-Dec-13 00:33N 53°43' E 009°28'1312.9
2014-Dec-12 23:33N 53°34' E 009°44'9 8.5
2014-Dec-12 22:33N 53°30' E 009°57'2 1.5
2014-Dec-12 21:29N 53°29' E 009°57'0 0.0
2014-Dec-12 20:29N 53°29' E 009°57'0 0.0
2014-Dec-12 19:29N 53°29' E 009°57'0 0.0
2014-Dec-12 18:32N 53°29' E 009°57'0 0.0
2014-Dec-12 17:29N 53°29' E 009°57'0 0.0
2014-Dec-12 16:32N 53°29' E 009°57'0 0.0
2014-Dec-12 15:29N 53°29' E 009°57'0 0.0
2014-Dec-12 14:32N 53°29' E 009°57'0 0.0
2014-Dec-12 13:32N 53°29' E 009°57'0 0.0
2014-Dec-12 12:32N 53°29' E 009°57'0 0.0
2014-Dec-12 11:32N 53°29' E 009°57'0 0.0
2014-Dec-12 10:29N 53°29' E 009°57'0 0.0
2014-Dec-12 09:29N 53°29' E 009°57'0 0.0
2014-Dec-12 08:32N 53°29' E 009°57'0 0.0
2014-Dec-12 07:32N 53°29' E 009°57'0 0.0
2014-Dec-12 06:32N 53°29' E 009°57'0 0.0
2014-Dec-12 05:32N 53°29' E 009°57'0 0.0
2014-Dec-12 04:32N 53°29' E 009°57'0 0.0
2014-Dec-12 03:32N 53°29' E 009°57'0 0.0
2014-Dec-12 02:32N 53°29' E 009°57'0 0.0
2014-Dec-12 01:32N 53°29' E 009°57'0 0.0
2014-Dec-12 00:32N 53°29' E 009°57'0 0.0
2014-Dec-11 23:32N 53°29' E 009°57'0 0.0
2014-Dec-11 22:29N 53°29' E 009°57'0 0.0
2014-Dec-11 21:29N 53°29' E 009°57'0 0.0
2014-Dec-11 20:29N 53°29' E 009°57'0 0.0
2014-Dec-11 19:32N 53°29' E 009°57'  

Dump ship's entire track history